createdAt,value
2019-06-10T00:01:08.785Z,42.67
2019-06-10T00:03:44.778Z,39.13
2019-06-10T00:06:20.966Z,45.57
2019-06-10T00:08:55.974Z,45.87
2019-06-10T00:11:31.936Z,40.70
2019-06-10T00:14:07.365Z,46.50
2019-06-10T00:16:42.824Z,46.65
2019-06-10T00:19:18.342Z,45.17
2019-06-10T00:21:52.287Z,41.77
2019-06-10T00:24:26.807Z,37.30
2019-06-10T00:27:02.871Z,29.93
2019-06-10T00:32:31.890Z,26.83
2019-06-10T00:35:07.678Z,32.60
2019-06-10T00:37:41.895Z,27.90
2019-06-10T00:40:16.140Z,32.83
2019-06-10T00:42:52.019Z,27.35
2019-06-10T00:45:28.000Z,28.60
2019-06-10T00:48:12.369Z,29.90
2019-06-10T00:50:43.097Z,21.87
2019-06-10T00:53:20.952Z,18.20
2019-06-10T00:55:54.640Z,18.70
2019-06-10T00:58:32.012Z,25.30
2019-06-10T01:01:07.868Z,14.88
2019-06-10T01:03:43.705Z,15.80
2019-06-10T01:06:21.389Z,11.05
2019-06-10T01:08:56.299Z,9.53
2019-06-10T01:11:31.178Z,13.07
2019-06-10T01:14:07.328Z,10.37
2019-06-10T01:16:41.150Z,11.80
2019-06-10T01:19:15.775Z,14.33
2019-06-10T01:22:11.074Z,8.23
2019-06-10T01:24:46.023Z,6.90
2019-06-10T01:27:21.247Z,10.27
2019-06-10T01:29:54.994Z,17.33
2019-06-10T01:32:31.011Z,13.20
2019-06-10T01:35:04.829Z,17.87
2019-06-10T01:37:41.422Z,12.00
2019-06-10T01:40:16.823Z,11.23
2019-06-10T01:42:51.679Z,11.60
2019-06-10T01:45:25.102Z,15.07
2019-06-10T01:47:58.734Z,25.83
2019-06-10T01:50:32.509Z,20.30
2019-06-10T01:53:07.296Z,18.30
2019-06-10T01:58:20.970Z,12.13
2019-06-10T02:00:54.479Z,14.10
2019-06-10T02:03:31.351Z,13.32
2019-06-10T02:06:04.581Z,12.27
2019-06-10T02:08:41.827Z,14.27
2019-06-10T02:11:17.265Z,9.03
2019-06-10T02:13:51.555Z,17.27
2019-06-10T02:16:25.256Z,10.93
2019-06-10T02:19:03.408Z,12.30
2019-06-10T02:21:35.303Z,9.87
2019-06-10T02:24:12.871Z,14.63
2019-06-10T02:26:46.608Z,13.50
2019-06-10T02:29:23.515Z,12.10
2019-06-10T02:31:58.437Z,12.17
2019-06-10T02:34:39.082Z,9.30
2019-06-10T02:37:08.849Z,7.95
2019-06-10T02:39:44.121Z,11.27
2019-06-10T02:42:21.632Z,8.73
2019-06-10T02:44:54.304Z,10.27
2019-06-10T02:47:33.560Z,21.20
2019-06-10T02:50:08.283Z,11.40
2019-06-10T02:52:44.053Z,11.00
2019-06-10T02:55:16.261Z,12.90
2019-06-10T03:00:37.138Z,9.83
2019-06-10T03:03:03.916Z,12.70
2019-06-10T03:05:40.862Z,13.10
2019-06-10T03:08:13.756Z,10.32
2019-06-10T03:10:54.422Z,19.10
2019-06-10T03:13:25.755Z,12.70
2019-06-10T03:16:17.806Z,13.70
2019-06-10T03:18:54.599Z,10.78
2019-06-10T03:21:28.557Z,13.13
2019-06-10T03:24:03.426Z,12.20
2019-06-10T03:26:42.816Z,13.60
2019-06-10T03:29:37.665Z,13.72
2019-06-10T03:32:14.517Z,14.20
2019-06-10T03:34:48.060Z,10.40
2019-06-10T03:37:23.271Z,11.53
2019-06-10T03:39:57.443Z,12.00
2019-06-10T03:42:32.482Z,13.90
2019-06-10T03:45:08.427Z,10.63
2019-06-10T03:47:42.903Z,11.15
2019-06-10T03:50:17.173Z,14.73
2019-06-10T03:52:52.501Z,12.20
2019-06-10T03:55:29.064Z,10.90
2019-06-10T03:58:04.385Z,14.27
2019-06-10T04:00:39.328Z,11.37
2019-06-10T04:03:13.139Z,11.53
2019-06-10T04:05:47.649Z,12.90
2019-06-10T04:08:22.409Z,11.45
2019-06-10T04:10:58.677Z,11.17
2019-06-10T04:13:34.066Z,10.67
2019-06-10T04:16:09.294Z,13.23
2019-06-10T04:18:45.514Z,11.97
2019-06-10T04:21:22.439Z,9.53
2019-06-10T04:23:55.343Z,9.97
2019-06-10T04:26:29.678Z,8.97
2019-06-10T04:29:03.461Z,10.77
2019-06-10T04:31:42.294Z,10.60
2019-06-10T04:34:15.646Z,9.98
2019-06-10T04:36:52.599Z,9.85
2019-06-10T04:39:29.165Z,8.90
2019-06-10T04:42:02.732Z,11.17
2019-06-10T04:44:36.590Z,14.55
2019-06-10T04:47:11.948Z,8.53
2019-06-10T04:49:45.248Z,9.95
2019-06-10T04:52:21.247Z,10.30
2019-06-10T04:54:57.158Z,10.73
2019-06-10T04:57:32.769Z,11.20
2019-06-10T05:00:11.359Z,13.70
2019-06-10T05:02:43.050Z,12.37
2019-06-10T05:05:19.329Z,14.83
2019-06-10T05:07:53.233Z,13.30
2019-06-10T05:10:29.832Z,10.90
2019-06-10T05:13:04.480Z,9.53
2019-06-10T05:15:37.972Z,13.53
2019-06-10T05:18:13.135Z,14.98
2019-06-10T05:20:54.912Z,20.97
2019-06-10T05:23:24.871Z,11.75
2019-06-10T05:25:58.427Z,10.67
2019-06-10T05:28:34.312Z,12.25
2019-06-10T05:31:09.618Z,12.67
2019-06-10T05:33:45.208Z,7.60
2019-06-10T05:40:56.802Z,10.13
2019-06-10T05:43:32.928Z,15.13
2019-06-10T05:46:05.571Z,15.23
2019-06-10T05:48:39.469Z,9.50
2019-06-10T05:51:14.579Z,8.73
2019-06-10T05:53:48.215Z,12.28
2019-06-10T05:56:23.857Z,14.63
2019-06-10T05:59:02.259Z,7.83
2019-06-10T06:01:37.911Z,9.87
2019-06-10T06:04:12.663Z,14.10
2019-06-10T06:06:46.174Z,11.15
2019-06-10T06:09:22.002Z,19.77
2019-06-10T06:11:55.832Z,18.30
2019-06-10T06:14:29.880Z,16.20
2019-06-10T06:17:03.573Z,16.07
2019-06-10T06:19:38.882Z,18.03
2019-06-10T06:22:13.760Z,17.77
2019-06-10T06:24:49.044Z,16.27
2019-06-10T06:27:24.360Z,18.83
2019-06-10T06:29:58.133Z,18.03
2019-06-10T06:32:36.385Z,16.63
2019-06-10T06:35:12.650Z,21.10
2019-06-10T06:37:45.598Z,12.77
2019-06-10T06:40:22.961Z,20.30
2019-06-10T06:42:57.988Z,21.77
2019-06-10T06:45:34.041Z,20.17
2019-06-10T06:48:08.229Z,19.23
2019-06-10T06:51:00.310Z,25.10
2019-06-10T06:53:30.205Z,14.00
2019-06-10T06:55:56.442Z,14.27
2019-06-10T06:58:33.229Z,19.80
2019-06-10T07:01:10.664Z,17.57
2019-06-10T07:03:45.132Z,27.33
2019-06-10T07:06:18.977Z,14.33
2019-06-10T07:09:04.218Z,17.23
2019-06-10T07:11:33.941Z,15.53
2019-06-10T07:14:12.862Z,11.50
2019-06-10T07:16:46.526Z,15.33
2019-06-10T07:19:22.635Z,18.63
2019-06-10T07:22:08.786Z,9.87
2019-06-10T07:24:34.239Z,17.57
2019-06-10T07:27:08.875Z,15.50
2019-06-10T07:29:47.019Z,8.00
2019-06-10T07:32:22.532Z,8.50
2019-06-10T07:34:56.242Z,9.40
2019-06-10T07:37:32.805Z,9.90
2019-06-10T07:40:09.276Z,10.77
2019-06-10T07:42:44.115Z,9.07
2019-06-10T07:45:19.415Z,12.85
2019-06-10T07:47:53.959Z,9.17
2019-06-10T07:50:29.273Z,11.50
2019-06-10T07:53:03.293Z,18.63
2019-06-10T07:55:37.879Z,13.00
2019-06-10T07:58:14.252Z,11.48
2019-06-10T08:00:48.624Z,14.90
2019-06-10T08:03:22.537Z,8.23
2019-06-10T08:05:57.891Z,14.63
2019-06-10T08:08:33.190Z,15.70
2019-06-10T08:11:06.860Z,13.67
2019-06-10T08:13:42.915Z,12.70
2019-06-10T08:16:15.544Z,11.85
2019-06-10T08:19:16.152Z,11.43
2019-06-10T08:21:25.983Z,11.80
2019-06-10T08:24:03.306Z,10.80
2019-06-10T08:26:37.266Z,10.53
2019-06-10T08:29:13.008Z,12.50
2019-06-10T08:31:49.891Z,16.45
2019-06-10T08:34:25.094Z,16.50
2019-06-10T08:37:13.611Z,7.23
2019-06-10T08:39:58.819Z,9.07
2019-06-10T08:42:39.111Z,9.47
2019-06-10T08:45:03.975Z,11.47
2019-06-10T08:47:39.111Z,13.83
2019-06-10T08:50:14.156Z,8.93
2019-06-10T08:53:03.349Z,9.83
2019-06-10T08:55:23.465Z,10.83
2019-06-10T08:58:02.653Z,9.70
2019-06-10T09:00:53.280Z,16.43
2019-06-10T09:06:50.670Z,9.90
2019-06-10T09:09:12.719Z,11.77
2019-06-10T09:11:47.432Z,12.30
2019-06-10T09:14:23.255Z,12.27
2019-06-10T09:16:56.871Z,15.63
2019-06-10T09:19:33.273Z,11.90
2019-06-10T09:22:07.215Z,20.97
2019-06-10T09:24:48.723Z,12.93
2019-06-10T09:27:24.436Z,18.33
2019-06-10T09:29:57.348Z,18.40
2019-06-10T09:32:33.388Z,8.93
2019-06-10T09:35:08.888Z,14.60
2019-06-10T09:37:48.421Z,18.13
2019-06-10T09:40:19.727Z,10.63
2019-06-10T09:42:55.205Z,14.77
2019-06-10T09:45:33.117Z,16.77
2019-06-10T09:48:06.276Z,15.87
2019-06-10T09:50:50.806Z,12.63
2019-06-10T09:53:32.794Z,12.37
2019-06-10T09:55:56.727Z,15.37
2019-06-10T09:58:32.984Z,9.53
2019-06-10T10:01:07.032Z,13.45
2019-06-10T10:03:41.842Z,17.57
2019-06-10T10:06:17.260Z,13.67
2019-06-10T10:08:56.533Z,12.67
2019-06-10T10:11:28.508Z,15.37
2019-06-10T10:14:05.267Z,12.53
2019-06-10T10:16:35.699Z,10.72
2019-06-10T10:19:13.058Z,9.93
2019-06-10T10:21:50.182Z,11.12
2019-06-10T10:24:22.984Z,14.23
2019-06-10T10:26:58.044Z,8.05
2019-06-10T10:29:32.841Z,14.20
2019-06-10T10:32:07.022Z,17.93
2019-06-10T10:34:43.757Z,8.50
2019-06-10T10:37:16.712Z,8.25
2019-06-10T10:40:12.158Z,13.47
2019-06-10T10:42:52.213Z,13.00
2019-06-10T10:45:22.813Z,10.60
2019-06-10T10:47:58.012Z,10.10
2019-06-10T10:50:33.962Z,11.75
2019-06-10T10:53:08.009Z,16.07
2019-06-10T10:55:43.757Z,18.43
2019-06-10T10:58:19.365Z,17.07
2019-06-10T11:00:56.763Z,11.37
2019-06-10T11:03:29.836Z,11.40
2019-06-10T11:06:03.589Z,10.23
2019-06-10T11:08:37.421Z,13.67
2019-06-10T11:11:13.895Z,12.13
2019-06-10T11:13:53.326Z,18.20
2019-06-10T11:16:26.019Z,11.27
2019-06-10T11:19:02.541Z,18.27
2019-06-10T11:21:36.554Z,11.17
2019-06-10T11:24:10.064Z,16.10
2019-06-10T11:29:42.120Z,13.53
2019-06-10T11:32:18.893Z,12.80
2019-06-10T11:34:56.939Z,19.07
2019-06-10T11:37:50.972Z,13.32
2019-06-10T11:40:28.179Z,17.48
2019-06-10T11:43:03.298Z,14.23
2019-06-10T11:45:44.208Z,16.30
2019-06-10T11:48:14.461Z,15.77
2019-06-10T11:50:49.199Z,19.63
2019-06-10T11:53:28.704Z,20.52
2019-06-10T11:56:02.758Z,18.35
2019-06-10T11:58:36.541Z,19.27
2019-06-10T12:01:15.264Z,14.13
2019-06-10T12:03:50.488Z,19.37
2019-06-10T12:06:25.831Z,14.90
2019-06-10T12:09:02.778Z,15.65
2019-06-10T12:11:35.710Z,14.43
2019-06-10T12:14:13.111Z,16.63
2019-06-10T12:19:28.402Z,20.40
2019-06-10T12:22:07.334Z,17.93
2019-06-10T12:24:43.166Z,28.90
2019-06-10T12:27:23.794Z,18.55
2019-06-10T12:30:04.930Z,24.10
2019-06-10T12:32:38.977Z,24.10
2019-06-10T12:35:15.360Z,20.87
2019-06-10T12:37:55.891Z,20.07
2019-06-10T12:40:27.899Z,20.60
2019-06-10T12:43:05.065Z,29.67
2019-06-10T12:45:38.776Z,29.10
2019-06-10T12:48:14.214Z,21.50
2019-06-10T12:50:49.782Z,21.23
2019-06-10T12:53:23.776Z,21.27
2019-06-10T12:55:59.243Z,25.40
2019-06-10T12:58:43.842Z,24.05
2019-06-10T13:01:17.115Z,20.00
2019-06-10T13:03:53.608Z,33.70
2019-06-10T13:06:29.429Z,27.70
2019-06-10T13:09:08.100Z,24.00
2019-06-10T13:11:43.311Z,19.65
2019-06-10T13:14:18.600Z,21.70
2019-06-10T13:16:58.590Z,18.53
2019-06-10T13:19:34.509Z,27.43
2019-06-10T13:22:08.920Z,19.67
2019-06-10T13:24:44.603Z,27.75
2019-06-10T13:27:18.802Z,24.57
2019-06-10T13:29:53.819Z,23.17
2019-06-10T13:32:28.270Z,23.27
2019-06-10T13:35:04.713Z,27.53
2019-06-10T13:37:42.714Z,26.33
2019-06-10T13:40:16.976Z,27.73
2019-06-10T13:42:54.719Z,26.50
2019-06-10T13:45:28.198Z,30.88
2019-06-10T13:48:06.084Z,24.90
2019-06-10T13:50:42.223Z,29.23
2019-06-10T13:53:14.568Z,34.23
2019-06-10T13:55:48.225Z,34.13
2019-06-10T13:58:22.979Z,26.90
2019-06-10T14:00:56.829Z,31.50
2019-06-10T14:03:32.734Z,30.93
2019-06-10T14:06:28.446Z,26.67
2019-06-10T14:08:45.579Z,40.67
2019-06-10T14:11:21.263Z,37.63
2019-06-10T14:13:56.247Z,31.83
2019-06-10T14:16:33.173Z,35.83
2019-06-10T14:19:09.183Z,38.87
2019-06-10T14:21:42.964Z,38.60
2019-06-10T14:24:17.711Z,45.35
2019-06-10T14:26:53.165Z,38.40
2019-06-10T14:29:32.228Z,42.53
2019-06-10T14:32:09.378Z,37.30
2019-06-10T14:34:43.650Z,39.77
2019-06-10T14:37:32.267Z,40.23
2019-06-10T14:39:54.390Z,44.43
2019-06-10T14:42:29.486Z,42.57
2019-06-10T14:45:04.478Z,35.43
2019-06-10T14:47:39.605Z,36.10
2019-06-10T14:50:17.405Z,41.07
2019-06-10T14:52:53.052Z,43.70
2019-06-10T14:55:28.132Z,42.97
2019-06-10T14:58:03.225Z,42.40
2019-06-10T15:00:37.280Z,44.30
2019-06-10T15:03:12.307Z,41.10
2019-06-10T15:05:52.935Z,42.17
2019-06-10T15:08:28.048Z,54.67
2019-06-10T15:11:03.228Z,43.63
2019-06-10T15:13:37.009Z,46.80
2019-06-10T15:16:12.254Z,43.00
2019-06-10T15:18:47.453Z,47.30
2019-06-10T15:21:22.998Z,40.67
2019-06-10T15:23:59.506Z,44.60
2019-06-10T15:26:34.622Z,44.07
2019-06-10T15:29:11.170Z,45.37
2019-06-10T15:31:45.160Z,46.57
2019-06-10T15:34:19.890Z,44.00
2019-06-10T15:36:54.897Z,44.00
2019-06-10T15:39:30.085Z,46.60
2019-06-10T15:42:03.884Z,45.92
2019-06-10T15:44:49.668Z,44.07
2019-06-10T15:47:18.817Z,49.50
2019-06-10T15:49:52.508Z,63.03
2019-06-10T15:52:27.580Z,48.50
2019-06-10T15:55:04.139Z,47.63
2019-06-10T15:57:43.201Z,46.37
2019-06-10T16:00:21.536Z,43.47
2019-06-10T16:02:52.913Z,51.13
2019-06-10T16:05:26.733Z,42.90
2019-06-10T16:08:02.926Z,47.70
2019-06-10T16:10:38.110Z,47.13
2019-06-10T16:13:12.855Z,45.17
2019-06-10T16:15:46.741Z,48.43
2019-06-10T16:18:26.730Z,51.67
2019-06-10T16:20:57.971Z,52.30
2019-06-10T16:23:34.178Z,58.17
2019-06-10T16:26:09.532Z,46.75
2019-06-10T16:28:43.705Z,48.63
2019-06-10T16:31:21.197Z,57.70
2019-06-10T16:33:55.713Z,54.97
2019-06-10T16:36:32.005Z,57.80
2019-06-10T16:39:06.124Z,58.20
2019-06-10T16:41:39.941Z,57.40
2019-06-10T16:44:15.808Z,53.27
2019-06-10T16:46:49.694Z,54.73
2019-06-10T16:49:23.732Z,61.25
2019-06-10T16:51:57.478Z,57.23
2019-06-10T16:54:32.946Z,63.00
2019-06-10T16:57:08.259Z,62.17
2019-06-10T16:59:42.922Z,58.10
2019-06-10T17:02:17.176Z,60.63
2019-06-10T17:04:52.652Z,67.43
2019-06-10T17:07:29.056Z,58.63
2019-06-10T17:10:04.424Z,66.10
2019-06-10T17:12:42.661Z,62.05
2019-06-10T17:15:19.047Z,60.73
2019-06-10T17:17:53.199Z,62.93
2019-06-10T17:20:27.979Z,65.40
2019-06-10T17:23:04.072Z,63.68
2019-06-10T17:25:37.973Z,69.43
2019-06-10T17:28:18.289Z,64.70
2019-06-10T17:30:48.289Z,62.13
2019-06-10T17:33:22.938Z,63.50
2019-06-10T17:35:58.941Z,68.57
2019-06-10T17:38:34.737Z,63.92
2019-06-10T17:41:10.077Z,69.93
2019-06-10T17:43:44.127Z,67.00
2019-06-10T17:46:19.537Z,68.57
2019-06-10T17:48:54.810Z,79.12
2019-06-10T17:51:35.046Z,78.17
2019-06-10T17:54:09.412Z,75.40
2019-06-10T17:56:43.381Z,75.63
2019-06-10T17:59:18.732Z,76.20
2019-06-10T18:01:54.466Z,75.17
2019-06-10T18:04:29.256Z,81.60
2019-06-10T18:07:04.635Z,79.40
2019-06-10T18:09:39.598Z,94.70
2019-06-10T18:12:13.418Z,92.53
2019-06-10T18:14:48.399Z,89.77
2019-06-10T18:17:23.821Z,88.87
2019-06-10T18:19:57.446Z,92.25
2019-06-10T18:22:34.114Z,94.73
2019-06-10T18:25:08.490Z,91.17
2019-06-10T18:27:43.560Z,92.30
2019-06-10T18:30:17.584Z,95.73
2019-06-10T18:32:52.554Z,93.93
2019-06-10T18:35:27.831Z,92.83
2019-06-10T18:38:03.482Z,94.33
2019-06-10T18:40:37.541Z,100.30
2019-06-10T18:43:12.850Z,100.10
2019-06-10T18:45:47.778Z,99.80
2019-06-10T18:48:23.096Z,96.10
2019-06-10T18:50:58.468Z,110.77
2019-06-10T18:53:36.309Z,101.47
2019-06-10T18:56:12.651Z,111.57
2019-06-10T18:58:47.041Z,105.10
2019-06-10T19:01:22.695Z,120.62
2019-06-10T19:03:56.832Z,121.72
2019-06-10T19:06:33.837Z,113.77
2019-06-10T19:09:12.628Z,123.58
2019-06-10T19:11:47.190Z,117.50
2019-06-10T19:14:23.695Z,125.10
2019-06-10T19:16:58.923Z,138.40
2019-06-10T19:19:34.271Z,134.43
2019-06-10T19:22:09.838Z,129.80
2019-06-10T19:24:44.828Z,134.40
2019-06-10T19:27:23.156Z,138.97
2019-06-10T19:29:55.693Z,157.23
2019-06-10T19:32:34.069Z,173.38
2019-06-10T19:35:09.195Z,172.78
2019-06-10T19:37:44.599Z,186.03
2019-06-10T19:40:22.758Z,179.73
2019-06-10T19:42:57.494Z,189.37
2019-06-10T19:45:35.945Z,186.00
2019-06-10T19:48:12.281Z,195.73
2019-06-10T19:50:50.113Z,193.87
2019-06-10T19:53:22.564Z,215.40
2019-06-10T19:55:56.427Z,209.30
2019-06-10T19:58:32.152Z,194.52
2019-06-10T20:01:06.306Z,206.33
2019-06-10T20:03:44.932Z,197.77
2019-06-10T20:06:16.929Z,220.23
2019-06-10T20:08:53.931Z,211.13
2019-06-10T20:11:29.434Z,214.67
2019-06-10T20:14:04.708Z,231.20
2019-06-10T20:16:39.694Z,206.67
2019-06-10T20:19:15.115Z,205.73
2019-06-10T20:21:49.256Z,212.75
2019-06-10T20:24:24.426Z,212.87
2019-06-10T20:26:59.471Z,210.40
2019-06-10T20:29:34.235Z,204.60
2019-06-10T20:32:10.782Z,205.50
2019-06-10T20:34:44.784Z,190.23
2019-06-10T20:37:19.347Z,201.67
2019-06-10T20:39:54.736Z,193.70
2019-06-10T20:42:32.197Z,183.50
2019-06-10T20:45:06.458Z,199.90
2019-06-10T20:47:44.639Z,188.47
2019-06-10T20:50:19.014Z,177.07
2019-06-10T20:52:54.456Z,184.17
2019-06-10T20:55:40.450Z,186.43
2019-06-10T20:58:07.096Z,189.57
2019-06-10T21:00:45.633Z,182.60
2019-06-10T21:03:15.057Z,197.27
2019-06-10T21:05:53.527Z,189.03
2019-06-10T21:08:29.836Z,190.73
2019-06-10T21:11:03.505Z,182.27
2019-06-10T21:13:37.388Z,204.30
2019-06-10T21:16:12.849Z,200.33
2019-06-10T21:18:49.173Z,184.97
2019-06-10T21:21:24.247Z,187.20
2019-06-10T21:23:59.321Z,189.20
2019-06-10T21:26:35.211Z,188.57
2019-06-10T21:29:12.741Z,185.07
2019-06-10T21:31:46.980Z,188.00
2019-06-10T21:34:22.393Z,189.55
2019-06-10T21:36:56.302Z,184.57
2019-06-10T21:39:32.232Z,188.50
2019-06-10T21:42:06.055Z,179.53
2019-06-10T21:44:39.988Z,184.15
2019-06-10T21:49:54.817Z,189.97
2019-06-10T21:52:32.369Z,183.50
2019-06-10T21:55:07.707Z,183.90
2019-06-10T21:57:42.980Z,189.23
2019-06-10T22:00:17.258Z,191.13
2019-06-10T22:02:58.406Z,181.60
2019-06-10T22:05:33.031Z,182.13
2019-06-10T22:08:07.875Z,191.53
2019-06-10T22:10:44.246Z,180.43
2019-06-10T22:13:19.682Z,180.57
2019-06-10T22:15:56.892Z,177.57
2019-06-10T22:18:32.076Z,171.70
2019-06-10T22:21:04.431Z,179.18
2019-06-10T22:23:39.459Z,179.20
2019-06-10T22:26:13.855Z,169.13
2019-06-10T22:28:49.525Z,158.13
2019-06-10T22:31:26.472Z,157.30
2019-06-10T22:34:03.206Z,162.67
2019-06-10T22:36:36.022Z,163.75
2019-06-10T22:39:12.356Z,151.22
2019-06-10T22:41:46.951Z,157.87
2019-06-10T22:44:24.197Z,160.20
2019-06-10T22:47:00.109Z,153.50
2019-06-10T22:49:35.759Z,159.60
2019-06-10T22:52:12.415Z,161.63
2019-06-10T22:54:47.781Z,147.22
2019-06-10T22:57:22.175Z,144.50
2019-06-10T22:59:56.536Z,140.05
2019-06-10T23:02:33.320Z,157.30
2019-06-10T23:05:08.054Z,142.90
2019-06-10T23:07:43.379Z,138.00
2019-06-10T23:10:18.891Z,137.72
2019-06-10T23:12:57.792Z,136.80
2019-06-10T23:15:32.322Z,132.53
2019-06-10T23:18:07.441Z,131.33
2019-06-10T23:20:42.900Z,126.73
2019-06-10T23:23:23.107Z,126.50
2019-06-10T23:25:58.033Z,120.10
2019-06-10T23:28:36.316Z,117.17
2019-06-10T23:31:12.741Z,128.83
2019-06-10T23:33:48.566Z,120.35
2019-06-10T23:36:24.012Z,122.37
2019-06-10T23:38:59.084Z,123.92
2019-06-10T23:41:34.099Z,119.63
2019-06-10T23:44:09.368Z,120.30
2019-06-10T23:46:45.046Z,111.50
2019-06-10T23:49:22.667Z,113.10
2019-06-10T23:51:57.202Z,105.07
2019-06-10T23:54:32.631Z,105.57
2019-06-10T23:57:06.504Z,106.93
2019-06-10T23:59:42.742Z,103.97
